createdAt,value
2023-02-24T00:11:07.030Z,92.6
2023-02-24T00:26:16.210Z,92.7
2023-02-24T00:41:25.598Z,92.8
2023-02-24T00:56:34.975Z,92.7
2023-02-24T01:11:44.809Z,92.5
2023-02-24T01:26:54.941Z,92.4
2023-02-24T01:42:04.015Z,92.2
2023-02-24T01:57:13.530Z,91.8
2023-02-24T02:12:23.093Z,91.8
2023-02-24T02:27:32.967Z,91.6
2023-02-24T02:42:42.596Z,91.9
2023-02-24T02:57:52.396Z,91.8
2023-02-24T03:13:01.297Z,91.8
2023-02-24T03:28:09.725Z,91.7
2023-02-24T03:43:20.028Z,91.5
2023-02-24T03:58:29.273Z,91.4
2023-02-24T04:13:38.936Z,91.1
2023-02-24T04:28:48.387Z,91
2023-02-24T04:43:57.385Z,90.8
2023-02-24T04:59:07.657Z,90.9
2023-02-24T05:14:16.920Z,90.9
2023-02-24T05:29:26.336Z,90.7
2023-02-24T05:44:36.379Z,90.5
2023-02-24T05:59:46.277Z,90.3
2023-02-24T06:14:55.265Z,90.1
2023-02-24T06:30:05.916Z,89.9
2023-02-24T06:45:15.311Z,89.7
2023-02-24T07:00:25.056Z,89.5
2023-02-24T07:15:36.324Z,89.3
2023-02-24T07:30:46.119Z,89
2023-02-24T07:45:56.000Z,88.8
2023-02-24T08:01:05.237Z,89.4
2023-02-24T08:16:15.430Z,88.5
2023-02-24T08:31:27.550Z,88.4
2023-02-24T08:46:37.667Z,88.4
2023-02-24T09:02:05.408Z,88.9
2023-02-24T09:17:15.040Z,89.1
2023-02-24T09:32:24.510Z,89.2
2023-02-24T09:47:33.590Z,89.2
2023-02-24T10:02:43.465Z,89.1
2023-02-24T10:17:53.076Z,89.3
2023-02-24T10:33:03.027Z,89.3
2023-02-24T10:48:15.992Z,89.2
2023-02-24T11:03:33.521Z,89.1
2023-02-24T11:18:43.654Z,89
2023-02-24T11:33:52.927Z,89.2
2023-02-24T11:49:02.572Z,89.4
2023-02-24T12:04:11.193Z,89.7
2023-02-24T12:19:21.554Z,89.9
2023-02-24T12:34:30.702Z,90.1
2023-02-24T12:49:40.186Z,90.3
2023-02-24T13:04:49.789Z,90.3
2023-02-24T13:19:59.687Z,90.4
2023-02-24T13:35:08.220Z,90.3
2023-02-24T13:50:18.709Z,90.3
2023-02-24T14:05:27.959Z,90.1
2023-02-24T14:20:37.403Z,90.1
2023-02-24T14:35:47.420Z,90.1
2023-02-24T14:50:56.937Z,89.7
2023-02-24T15:06:06.510Z,90.1
2023-02-24T15:21:16.006Z,90.2
2023-02-24T15:36:26.017Z,90.2
2023-02-24T15:51:35.778Z,90.2
2023-02-24T16:06:44.864Z,90.4
2023-02-24T16:21:54.169Z,90.5
2023-02-24T16:37:03.625Z,90.5
2023-02-24T16:52:12.936Z,90.6
2023-02-24T17:07:22.792Z,90.7
2023-02-24T17:22:32.909Z,90.8
2023-02-24T17:37:42.913Z,90.8
2023-02-24T17:52:52.275Z,90.8
2023-02-24T18:08:02.604Z,91
2023-02-24T18:23:12.183Z,91.2
2023-02-24T18:38:22.081Z,90.7
2023-02-24T18:53:31.808Z,90.8
2023-02-24T19:08:41.415Z,90.9
2023-02-24T19:23:50.950Z,91
2023-02-24T19:39:00.297Z,91.4
2023-02-24T19:54:10.175Z,91.5
2023-02-24T20:09:21.872Z,91.4
2023-02-24T20:24:31.105Z,91.7
2023-02-24T20:39:41.053Z,91.6
2023-02-24T20:54:50.617Z,91.5
2023-02-24T21:10:00.930Z,91.5
2023-02-24T21:25:10.381Z,91.5
2023-02-24T21:40:22.609Z,91.4
2023-02-24T21:55:32.493Z,91.4
2023-02-24T22:10:42.055Z,91.4
2023-02-24T22:25:51.513Z,91.4
2023-02-24T22:41:00.647Z,91.4
2023-02-24T22:56:10.601Z,91.2
2023-02-24T23:11:21.473Z,91.3
2023-02-24T23:26:30.989Z,91.7
2023-02-24T23:41:40.552Z,91.4
2023-02-24T23:56:50.021Z,91.3
